sensor_id;sensor_type;location;lat;lon;timestamp;P1;P2;P0
73246;PMS5003;61460;41.158;-73.238;2023-04-25T00:00:12;6;6;
73246;PMS5003;61460;41.158;-73.238;2023-04-25T00:02:42;6;5;
73246;PMS5003;61460;41.158;-73.238;2023-04-25T00:05:13;5;5;
73246;PMS5003;61460;41.158;-73.238;2023-04-25T00:07:43;6;6;
73246;PMS5003;61460;41.158;-73.238;2023-04-25T00:10:14;7;6;
73246;PMS5003;61460;41.158;-73.238;2023-04-25T00:12:45;6;6;
73246;PMS5003;61460;41.158;-73.238;2023-04-25T00:15:15;8;7;
73246;PMS5003;61460;41.158;-73.238;2023-04-25T00:17:46;8;7;
73246;PMS5003;61460;41.158;-73.238;2023-04-25T00:20:17;6;6;
73246;PMS5003;61460;41.158;-73.238;2023-04-25T00:22:47;8;8;
73246;PMS5003;61460;41.158;-73.238;2023-04-25T00:25:18;8;8;
73246;PMS5003;61460;41.158;-73.238;2023-04-25T00:27:49;10;9;
73246;PMS5003;61460;41.158;-73.238;2023-04-25T00:30:19;8;8;
73246;PMS5003;61460;41.158;-73.238;2023-04-25T00:32:50;9;8;
73246;PMS5003;61460;41.158;-73.238;2023-04-25T00:35:21;6;6;
73246;PMS5003;61460;41.158;-73.238;2023-04-25T00:37:51;9;9;
73246;PMS5003;61460;41.158;-73.238;2023-04-25T00:40:22;10;8;
73246;PMS5003;61460;41.158;-73.238;2023-04-25T00:42:53;11;10;
73246;PMS5003;61460;41.158;-73.238;2023-04-25T00:45:24;11;10;
73246;PMS5003;61460;41.158;-73.238;2023-04-25T00:47:54;11;11;
73246;PMS5003;61460;41.158;-73.238;2023-04-25T00:50:25;11;11;
73246;PMS5003;61460;41.158;-73.238;2023-04-25T00:52:55;14;12;
73246;PMS5003;61460;41.158;-73.238;2023-04-25T00:55:26;13;10;
73246;PMS5003;61460;41.158;-73.238;2023-04-25T00:57:56;12;11;
73246;PMS5003;61460;41.158;-73.238;2023-04-25T01:00:27;10;9;
73246;PMS5003;61460;41.158;-73.238;2023-04-25T01:02:58;8;8;
73246;PMS5003;61460;41.158;-73.238;2023-04-25T01:05:28;9;8;
73246;PMS5003;61460;41.158;-73.238;2023-04-25T01:07:59;10;8;
73246;PMS5003;61460;41.158;-73.238;2023-04-25T01:10:29;9;9;
73246;PMS5003;61460;41.158;-73.238;2023-04-25T01:13:00;17;8;
73246;PMS5003;61460;41.158;-73.238;2023-04-25T01:15:30;8;8;
73246;PMS5003;61460;41.158;-73.238;2023-04-25T01:18:01;8;7;
73246;PMS5003;61460;41.158;-73.238;2023-04-25T01:20:32;9;9;
73246;PMS5003;61460;41.158;-73.238;2023-04-25T01:23:02;9;7;
73246;PMS5003;61460;41.158;-73.238;2023-04-25T01:25:33;10;9;
73246;PMS5003;61460;41.158;-73.238;2023-04-25T01:28:04;7;6;
73246;PMS5003;61460;41.158;-73.238;2023-04-25T01:30:34;5;5;
73246;PMS5003;61460;41.158;-73.238;2023-04-25T01:33:05;6;6;
73246;PMS5003;61460;41.158;-73.238;2023-04-25T01:35:36;6;5;
73246;PMS5003;61460;41.158;-73.238;2023-04-25T01:38:06;7;6;
73246;PMS5003;61460;41.158;-73.238;2023-04-25T01:40:37;5;5;
73246;PMS5003;61460;41.158;-73.238;2023-04-25T01:43:08;4;4;
73246;PMS5003;61460;41.158;-73.238;2023-04-25T01:45:39;6;4;
73246;PMS5003;61460;41.158;-73.238;2023-04-25T01:48:09;6;5;
73246;PMS5003;61460;41.158;-73.238;2023-04-25T01:50:40;5;5;
73246;PMS5003;61460;41.158;-73.238;2023-04-25T01:53:10;5;5;
73246;PMS5003;61460;41.158;-73.238;2023-04-25T01:55:41;4;4;
73246;PMS5003;61460;41.158;-73.238;2023-04-25T01:58:12;7;5;
73246;PMS5003;61460;41.158;-73.238;2023-04-25T02:00:42;7;6;
73246;PMS5003;61460;41.158;-73.238;2023-04-25T02:03:13;5;4;
73246;PMS5003;61460;41.158;-73.238;2023-04-25T02:05:44;6;4;
73246;PMS5003;61460;41.158;-73.238;2023-04-25T02:08:16;7;7;
73246;PMS5003;61460;41.158;-73.238;2023-04-25T02:10:45;7;7;
73246;PMS5003;61460;41.158;-73.238;2023-04-25T02:13:16;7;5;
73246;PMS5003;61460;41.158;-73.238;2023-04-25T02:15:46;5;5;
73246;PMS5003;61460;41.158;-73.238;2023-04-25T02:18:17;7;6;
73246;PMS5003;61460;41.158;-73.238;2023-04-25T02:20:47;7;6;
73246;PMS5003;61460;41.158;-73.238;2023-04-25T02:23:18;8;6;
73246;PMS5003;61460;41.158;-73.238;2023-04-25T02:25:48;6;6;
73246;PMS5003;61460;41.158;-73.238;2023-04-25T02:28:19;8;8;
73246;PMS5003;61460;41.158;-73.238;2023-04-25T02:30:50;5;5;
73246;PMS5003;61460;41.158;-73.238;2023-04-25T02:33:20;6;5;
73246;PMS5003;61460;41.158;-73.238;2023-04-25T02:35:51;6;6;
73246;PMS5003;61460;41.158;-73.238;2023-04-25T02:38:22;6;6;
73246;PMS5003;61460;41.158;-73.238;2023-04-25T02:40:52;6;6;
73246;PMS5003;61460;41.158;-73.238;2023-04-25T02:43:23;8;7;
73246;PMS5003;61460;41.158;-73.238;2023-04-25T02:45:54;7;7;
73246;PMS5003;61460;41.158;-73.238;2023-04-25T02:48:24;8;7;
73246;PMS5003;61460;41.158;-73.238;2023-04-25T02:50:55;6;6;
73246;PMS5003;61460;41.158;-73.238;2023-04-25T02:53:26;5;5;
73246;PMS5003;61460;41.158;-73.238;2023-04-25T02:55:56;7;6;
73246;PMS5003;61460;41.158;-73.238;2023-04-25T02:58:27;7;6;
73246;PMS5003;61460;41.158;-73.238;2023-04-25T03:00:58;5;5;
73246;PMS5003;61460;41.158;-73.238;2023-04-25T03:03:28;7;6;
73246;PMS5003;61460;41.158;-73.238;2023-04-25T03:05:59;6;4;
73246;PMS5003;61460;41.158;-73.238;2023-04-25T03:08:29;7;5;
73246;PMS5003;61460;41.158;-73.238;2023-04-25T03:11:00;6;4;
73246;PMS5003;61460;41.158;-73.238;2023-04-25T03:13:30;6;6;
73246;PMS5003;61460;41.158;-73.238;2023-04-25T03:16:01;5;5;
73246;PMS5003;61460;41.158;-73.238;2023-04-25T03:18:32;4;4;
73246;PMS5003;61460;41.158;-73.238;2023-04-25T03:21:02;4;4;
73246;PMS5003;61460;41.158;-73.238;2023-04-25T03:23:33;6;4;
73246;PMS5003;61460;41.158;-73.238;2023-04-25T03:26:04;6;5;
73246;PMS5003;61460;41.158;-73.238;2023-04-25T03:28:34;3;3;
73246;PMS5003;61460;41.158;-73.238;2023-04-25T03:31:05;3;3;
73246;PMS5003;61460;41.158;-73.238;2023-04-25T03:33:36;4;4;
73246;PMS5003;61460;41.158;-73.238;2023-04-25T03:36:07;4;4;
73246;PMS5003;61460;41.158;-73.238;2023-04-25T03:38:37;5;5;
73246;PMS5003;61460;41.158;-73.238;2023-04-25T03:41:08;5;5;
73246;PMS5003;61460;41.158;-73.238;2023-04-25T03:43:38;3;3;
73246;PMS5003;61460;41.158;-73.238;2023-04-25T03:46:09;4;3;
73246;PMS5003;61460;41.158;-73.238;2023-04-25T03:48:40;5;5;
73246;PMS5003;61460;41.158;-73.238;2023-04-25T03:51:10;3;3;
73246;PMS5003;61460;41.158;-73.238;2023-04-25T03:53:41;3;3;
73246;PMS5003;61460;41.158;-73.238;2023-04-25T03:56:12;2;1;
73246;PMS5003;61460;41.158;-73.238;2023-04-25T03:58:42;3;3;
73246;PMS5003;61460;41.158;-73.238;2023-04-25T04:01:13;3;3;
73246;PMS5003;61460;41.158;-73.238;2023-04-25T04:03:44;2;1;
73246;PMS5003;61460;41.158;-73.238;2023-04-25T04:06:14;4;4;
73246;PMS5003;61460;41.158;-73.238;2023-04-25T04:08:45;3;3;
73246;PMS5003;61460;41.158;-73.238;2023-04-25T04:11:15;4;4;
73246;PMS5003;61460;41.158;-73.238;2023-04-25T04:13:46;3;3;
73246;PMS5003;61460;41.158;-73.238;2023-04-25T04:16:17;4;3;
73246;PMS5003;61460;41.158;-73.238;2023-04-25T04:18:47;3;2;
73246;PMS5003;61460;41.158;-73.238;2023-04-25T04:21:18;2;2;
73246;PMS5003;61460;41.158;-73.238;2023-04-25T04:23:49;4;3;
73246;PMS5003;61460;41.158;-73.238;2023-04-25T04:26:19;4;4;
73246;PMS5003;61460;41.158;-73.238;2023-04-25T04:28:50;4;4;
73246;PMS5003;61460;41.158;-73.238;2023-04-25T04:31:22;3;3;
73246;PMS5003;61460;41.158;-73.238;2023-04-25T04:33:51;3;3;
73246;PMS5003;61460;41.158;-73.238;2023-04-25T04:36:22;2;2;
73246;PMS5003;61460;41.158;-73.238;2023-04-25T04:38:53;2;2;
73246;PMS5003;61460;41.158;-73.238;2023-04-25T04:41:23;2;1;
73246;PMS5003;61460;41.158;-73.238;2023-04-25T04:43:54;2;2;
73246;PMS5003;61460;41.158;-73.238;2023-04-25T04:46:24;2;2;
73246;PMS5003;61460;41.158;-73.238;2023-04-25T04:48:55;3;3;
73246;PMS5003;61460;41.158;-73.238;2023-04-25T04:51:26;3;3;
73246;PMS5003;61460;41.158;-73.238;2023-04-25T04:53:56;2;2;
73246;PMS5003;61460;41.158;-73.238;2023-04-25T04:56:27;2;2;
73246;PMS5003;61460;41.158;-73.238;2023-04-25T04:58:58;2;1;
73246;PMS5003;61460;41.158;-73.238;2023-04-25T05:01:28;1;1;
73246;PMS5003;61460;41.158;-73.238;2023-04-25T05:03:59;4;3;
73246;PMS5003;61460;41.158;-73.238;2023-04-25T05:06:30;2;2;
73246;PMS5003;61460;41.158;-73.238;2023-04-25T05:09:00;3;3;
73246;PMS5003;61460;41.158;-73.238;2023-04-25T05:11:31;2;1;
73246;PMS5003;61460;41.158;-73.238;2023-04-25T05:14:02;4;2;
73246;PMS5003;61460;41.158;-73.238;2023-04-25T05:16:32;4;3;
73246;PMS5003;61460;41.158;-73.238;2023-04-25T05:19:03;2;2;
73246;PMS5003;61460;41.158;-73.238;2023-04-25T05:21:33;2;2;
73246;PMS5003;61460;41.158;-73.238;2023-04-25T05:24:04;1;1;
73246;PMS5003;61460;41.158;-73.238;2023-04-25T05:26:35;2;1;
73246;PMS5003;61460;41.158;-73.238;2023-04-25T05:29:05;3;3;
73246;PMS5003;61460;41.158;-73.238;2023-04-25T05:31:36;2;2;
73246;PMS5003;61460;41.158;-73.238;2023-04-25T05:34:07;1;1;
73246;PMS5003;61460;41.158;-73.238;2023-04-25T05:36:38;2;2;
73246;PMS5003;61460;41.158;-73.238;2023-04-25T05:39:08;3;3;
73246;PMS5003;61460;41.158;-73.238;2023-04-25T05:41:39;2;2;
73246;PMS5003;61460;41.158;-73.238;2023-04-25T05:44:09;3;3;
73246;PMS5003;61460;41.158;-73.238;2023-04-25T05:46:40;3;3;
73246;PMS5003;61460;41.158;-73.238;2023-04-25T05:49:11;2;2;
73246;PMS5003;61460;41.158;-73.238;2023-04-25T05:51:41;2;2;
73246;PMS5003;61460;41.158;-73.238;2023-04-25T05:54:12;2;2;
73246;PMS5003;61460;41.158;-73.238;2023-04-25T05:56:43;1;1;
73246;PMS5003;61460;41.158;-73.238;2023-04-25T05:59:13;1;1;
73246;PMS5003;61460;41.158;-73.238;2023-04-25T06:01:44;2;2;
73246;PMS5003;61460;41.158;-73.238;2023-04-25T06:04:14;3;2;
73246;PMS5003;61460;41.158;-73.238;2023-04-25T06:06:45;2;2;
73246;PMS5003;61460;41.158;-73.238;2023-04-25T06:09:16;1;1;
73246;PMS5003;61460;41.158;-73.238;2023-04-25T06:11:46;2;2;
73246;PMS5003;61460;41.158;-73.238;2023-04-25T06:14:17;2;2;
73246;PMS5003;61460;41.158;-73.238;2023-04-25T06:16:48;3;2;
73246;PMS5003;61460;41.158;-73.238;2023-04-25T06:19:18;1;1;
73246;PMS5003;61460;41.158;-73.238;2023-04-25T06:21:49;2;2;
73246;PMS5003;61460;41.158;-73.238;2023-04-25T06:24:20;2;2;
73246;PMS5003;61460;41.158;-73.238;2023-04-25T06:26:50;2;2;
73246;PMS5003;61460;41.158;-73.238;2023-04-25T06:29:21;1;1;
73246;PMS5003;61460;41.158;-73.238;2023-04-25T06:31:52;2;2;
73246;PMS5003;61460;41.158;-73.238;2023-04-25T06:34:22;2;2;
73246;PMS5003;61460;41.158;-73.238;2023-04-25T06:36:53;2;2;
73246;PMS5003;61460;41.158;-73.238;2023-04-25T06:39:24;1;1;
73246;PMS5003;61460;41.158;-73.238;2023-04-25T06:41:54;2;2;
73246;PMS5003;61460;41.158;-73.238;2023-04-25T06:44:25;2;2;
73246;PMS5003;61460;41.158;-73.238;2023-04-25T06:46:55;3;2;
73246;PMS5003;61460;41.158;-73.238;2023-04-25T06:49:26;2;2;
73246;PMS5003;61460;41.158;-73.238;2023-04-25T06:51:57;2;2;
73246;PMS5003;61460;41.158;-73.238;2023-04-25T06:54:28;2;2;
73246;PMS5003;61460;41.158;-73.238;2023-04-25T06:56:58;2;1;
73246;PMS5003;61460;41.158;-73.238;2023-04-25T06:59:29;2;2;
73246;PMS5003;61460;41.158;-73.238;2023-04-25T07:01:59;4;3;
73246;PMS5003;61460;41.158;-73.238;2023-04-25T07:04:30;2;2;
73246;PMS5003;61460;41.158;-73.238;2023-04-25T07:07:01;2;2;
73246;PMS5003;61460;41.158;-73.238;2023-04-25T07:09:31;1;1;
73246;PMS5003;61460;41.158;-73.238;2023-04-25T07:12:02;2;2;
73246;PMS5003;61460;41.158;-73.238;2023-04-25T07:14:33;3;2;
73246;PMS5003;61460;41.158;-73.238;2023-04-25T07:17:03;2;2;
73246;PMS5003;61460;41.158;-73.238;2023-04-25T07:19:34;2;2;
73246;PMS5003;61460;41.158;-73.238;2023-04-25T07:22:05;2;1;
73246;PMS5003;61460;41.158;-73.238;2023-04-25T07:24:35;2;2;
73246;PMS5003;61460;41.158;-73.238;2023-04-25T07:27:06;1;1;
73246;PMS5003;61460;41.158;-73.238;2023-04-25T07:29:37;1;1;
73246;PMS5003;61460;41.158;-73.238;2023-04-25T07:32:07;3;3;
73246;PMS5003;61460;41.158;-73.238;2023-04-25T07:34:38;1;1;
73246;PMS5003;61460;41.158;-73.238;2023-04-25T07:37:08;1;1;
73246;PMS5003;61460;41.158;-73.238;2023-04-25T07:39:39;1;1;
73246;PMS5003;61460;41.158;-73.238;2023-04-25T07:42:10;2;2;
73246;PMS5003;61460;41.158;-73.238;2023-04-25T07:44:40;1;1;
73246;PMS5003;61460;41.158;-73.238;2023-04-25T07:47:11;2;2;
73246;PMS5003;61460;41.158;-73.238;2023-04-25T07:49:42;1;1;
73246;PMS5003;61460;41.158;-73.238;2023-04-25T07:52:12;3;2;
73246;PMS5003;61460;41.158;-73.238;2023-04-25T07:54:43;1;1;
73246;PMS5003;61460;41.158;-73.238;2023-04-25T07:57:14;2;2;
73246;PMS5003;61460;41.158;-73.238;2023-04-25T07:59:44;2;2;
73246;PMS5003;61460;41.158;-73.238;2023-04-25T08:02:15;1;1;
73246;PMS5003;61460;41.158;-73.238;2023-04-25T08:04:46;1;1;
73246;PMS5003;61460;41.158;-73.238;2023-04-25T08:07:17;1;1;
73246;PMS5003;61460;41.158;-73.238;2023-04-25T08:09:47;1;1;
73246;PMS5003;61460;41.158;-73.238;2023-04-25T08:12:18;2;2;
73246;PMS5003;61460;41.158;-73.238;2023-04-25T08:14:48;1;1;
73246;PMS5003;61460;41.158;-73.238;2023-04-25T08:17:19;2;2;
73246;PMS5003;61460;41.158;-73.238;2023-04-25T08:19:50;2;2;
73246;PMS5003;61460;41.158;-73.238;2023-04-25T08:22:20;2;2;
73246;PMS5003;61460;41.158;-73.238;2023-04-25T08:24:51;1;1;
73246;PMS5003;61460;41.158;-73.238;2023-04-25T08:27:22;2;2;
73246;PMS5003;61460;41.158;-73.238;2023-04-25T08:29:52;2;2;
73246;PMS5003;61460;41.158;-73.238;2023-04-25T08:32:23;2;2;
73246;PMS5003;61460;41.158;-73.238;2023-04-25T08:34:54;0;0;
73246;PMS5003;61460;41.158;-73.238;2023-04-25T08:37:24;1;1;
73246;PMS5003;61460;41.158;-73.238;2023-04-25T08:39:55;0;0;
73246;PMS5003;61460;41.158;-73.238;2023-04-25T08:42:27;1;1;
73246;PMS5003;61460;41.158;-73.238;2023-04-25T08:44:56;0;0;
73246;PMS5003;61460;41.158;-73.238;2023-04-25T08:47:27;1;1;
73246;PMS5003;61460;41.158;-73.238;2023-04-25T08:49:58;1;1;
73246;PMS5003;61460;41.158;-73.238;2023-04-25T08:52:30;2;2;
73246;PMS5003;61460;41.158;-73.238;2023-04-25T08:54:59;1;1;
73246;PMS5003;61460;41.158;-73.238;2023-04-25T08:57:30;4;4;
73246;PMS5003;61460;41.158;-73.238;2023-04-25T09:00:00;2;1;
73246;PMS5003;61460;41.158;-73.238;2023-04-25T09:02:31;1;1;
73246;PMS5003;61460;41.158;-73.238;2023-04-25T09:05:01;1;1;
73246;PMS5003;61460;41.158;-73.238;2023-04-25T09:07:32;1;1;
73246;PMS5003;61460;41.158;-73.238;2023-04-25T09:10:03;1;1;
73246;PMS5003;61460;41.158;-73.238;2023-04-25T09:12:33;2;2;
73246;PMS5003;61460;41.158;-73.238;2023-04-25T09:15:05;1;1;
73246;PMS5003;61460;41.158;-73.238;2023-04-25T09:17:34;1;1;
73246;PMS5003;61460;41.158;-73.238;2023-04-25T09:20:06;2;2;
73246;PMS5003;61460;41.158;-73.238;2023-04-25T09:22:36;2;2;
73246;PMS5003;61460;41.158;-73.238;2023-04-25T09:25:08;1;1;
73246;PMS5003;61460;41.158;-73.238;2023-04-25T09:27:37;1;1;
73246;PMS5003;61460;41.158;-73.238;2023-04-25T09:30:08;2;2;
73246;PMS5003;61460;41.158;-73.238;2023-04-25T09:32:38;1;1;
73246;PMS5003;61460;41.158;-73.238;2023-04-25T09:35:09;1;1;
73246;PMS5003;61460;41.158;-73.238;2023-04-25T09:37:40;1;1;
73246;PMS5003;61460;41.158;-73.238;2023-04-25T09:40:11;2;2;
73246;PMS5003;61460;41.158;-73.238;2023-04-25T09:42:41;1;1;
73246;PMS5003;61460;41.158;-73.238;2023-04-25T09:45:12;2;2;
73246;PMS5003;61460;41.158;-73.238;2023-04-25T09:47:42;1;1;
73246;PMS5003;61460;41.158;-73.238;2023-04-25T09:50:14;2;2;
73246;PMS5003;61460;41.158;-73.238;2023-04-25T09:52:44;1;1;
73246;PMS5003;61460;41.158;-73.238;2023-04-25T09:55:14;2;2;
73246;PMS5003;61460;41.158;-73.238;2023-04-25T09:57:45;2;1;
73246;PMS5003;61460;41.158;-73.238;2023-04-25T10:00:16;2;2;
73246;PMS5003;61460;41.158;-73.238;2023-04-25T10:02:46;2;2;
73246;PMS5003;61460;41.158;-73.238;2023-04-25T10:05:17;2;2;
73246;PMS5003;61460;41.158;-73.238;2023-04-25T10:07:47;1;1;
73246;PMS5003;61460;41.158;-73.238;2023-04-25T10:10:18;0;0;
73246;PMS5003;61460;41.158;-73.238;2023-04-25T10:12:49;2;1;
73246;PMS5003;61460;41.158;-73.238;2023-04-25T10:15:19;1;1;
73246;PMS5003;61460;41.158;-73.238;2023-04-25T10:17:50;2;2;
73246;PMS5003;61460;41.158;-73.238;2023-04-25T10:20:21;1;1;
73246;PMS5003;61460;41.158;-73.238;2023-04-25T10:22:51;0;0;
73246;PMS5003;61460;41.158;-73.238;2023-04-25T10:25:22;1;1;
73246;PMS5003;61460;41.158;-73.238;2023-04-25T10:27:53;2;2;
73246;PMS5003;61460;41.158;-73.238;2023-04-25T10:30:23;1;1;
73246;PMS5003;61460;41.158;-73.238;2023-04-25T10:32:54;1;1;
73246;PMS5003;61460;41.158;-73.238;2023-04-25T10:35:25;1;1;
73246;PMS5003;61460;41.158;-73.238;2023-04-25T10:37:56;2;1;
73246;PMS5003;61460;41.158;-73.238;2023-04-25T10:40:26;1;1;
73246;PMS5003;61460;41.158;-73.238;2023-04-25T10:43:32;1;1;
73246;PMS5003;61460;41.158;-73.238;2023-04-25T10:45:27;2;2;
73246;PMS5003;61460;41.158;-73.238;2023-04-25T10:47:58;1;1;
73246;PMS5003;61460;41.158;-73.238;2023-04-25T10:58:01;2;2;
73246;PMS5003;61460;41.158;-73.238;2023-04-25T11:00:31;2;2;
73246;PMS5003;61460;41.158;-73.238;2023-04-25T11:03:02;0;0;
73246;PMS5003;61460;41.158;-73.238;2023-04-25T11:05:33;1;1;
73246;PMS5003;61460;41.158;-73.238;2023-04-25T11:08:03;1;1;
73246;PMS5003;61460;41.158;-73.238;2023-04-25T11:10:34;1;1;
73246;PMS5003;61460;41.158;-73.238;2023-04-25T11:13:05;1;1;
73246;PMS5003;61460;41.158;-73.238;2023-04-25T11:15:35;1;1;
73246;PMS5003;61460;41.158;-73.238;2023-04-25T11:18:06;1;1;
73246;PMS5003;61460;41.158;-73.238;2023-04-25T11:20:37;2;2;
73246;PMS5003;61460;41.158;-73.238;2023-04-25T11:23:07;1;1;
73246;PMS5003;61460;41.158;-73.238;2023-04-25T11:25:38;2;2;
73246;PMS5003;61460;41.158;-73.238;2023-04-25T11:28:09;2;2;
73246;PMS5003;61460;41.158;-73.238;2023-04-25T11:30:39;1;1;
73246;PMS5003;61460;41.158;-73.238;2023-04-25T11:33:10;2;2;
73246;PMS5003;61460;41.158;-73.238;2023-04-25T11:35:41;2;2;
73246;PMS5003;61460;41.158;-73.238;2023-04-25T11:38:11;1;1;
73246;PMS5003;61460;41.158;-73.238;2023-04-25T11:40:42;1;1;
73246;PMS5003;61460;41.158;-73.238;2023-04-25T11:43:13;2;1;
73246;PMS5003;61460;41.158;-73.238;2023-04-25T11:45:46;2;1;
73246;PMS5003;61460;41.158;-73.238;2023-04-25T11:48:14;1;1;
73246;PMS5003;61460;41.158;-73.238;2023-04-25T11:50:45;1;1;
73246;PMS5003;61460;41.158;-73.238;2023-04-25T11:53:17;1;1;
73246;PMS5003;61460;41.158;-73.238;2023-04-25T11:55:46;1;1;
73246;PMS5003;61460;41.158;-73.238;2023-04-25T11:58:17;1;1;
73246;PMS5003;61460;41.158;-73.238;2023-04-25T12:00:47;0;0;
73246;PMS5003;61460;41.158;-73.238;2023-04-25T12:03:18;3;2;
73246;PMS5003;61460;41.158;-73.238;2023-04-25T12:05:49;2;1;
73246;PMS5003;61460;41.158;-73.238;2023-04-25T12:08:20;2;1;
73246;PMS5003;61460;41.158;-73.238;2023-04-25T12:10:50;1;1;
73246;PMS5003;61460;41.158;-73.238;2023-04-25T12:13:21;1;1;
73246;PMS5003;61460;41.158;-73.238;2023-04-25T12:15:53;1;1;
73246;PMS5003;61460;41.158;-73.238;2023-04-25T12:18:23;1;1;
73246;PMS5003;61460;41.158;-73.238;2023-04-25T12:20:53;0;0;
73246;PMS5003;61460;41.158;-73.238;2023-04-25T12:23:25;2;2;
73246;PMS5003;61460;41.158;-73.238;2023-04-25T12:25:54;1;1;
73246;PMS5003;61460;41.158;-73.238;2023-04-25T12:28:25;2;2;
73246;PMS5003;61460;41.158;-73.238;2023-04-25T12:30:56;1;1;
73246;PMS5003;61460;41.158;-73.238;2023-04-25T12:33:27;0;0;
73246;PMS5003;61460;41.158;-73.238;2023-04-25T12:35:57;3;3;
73246;PMS5003;61460;41.158;-73.238;2023-04-25T12:38:28;1;1;
73246;PMS5003;61460;41.158;-73.238;2023-04-25T12:40:58;1;1;
73246;PMS5003;61460;41.158;-73.238;2023-04-25T12:43:29;2;1;
73246;PMS5003;61460;41.158;-73.238;2023-04-25T12:45:59;1;1;
73246;PMS5003;61460;41.158;-73.238;2023-04-25T12:48:30;0;0;
73246;PMS5003;61460;41.158;-73.238;2023-04-25T12:51:01;0;0;
73246;PMS5003;61460;41.158;-73.238;2023-04-25T12:53:31;1;1;
73246;PMS5003;61460;41.158;-73.238;2023-04-25T12:56:02;0;0;
73246;PMS5003;61460;41.158;-73.238;2023-04-25T12:58:33;1;1;
73246;PMS5003;61460;41.158;-73.238;2023-04-25T13:01:03;1;1;
73246;PMS5003;61460;41.158;-73.238;2023-04-25T13:03:34;1;1;
73246;PMS5003;61460;41.158;-73.238;2023-04-25T13:06:05;2;1;
73246;PMS5003;61460;41.158;-73.238;2023-04-25T13:08:36;1;1;
73246;PMS5003;61460;41.158;-73.238;2023-04-25T13:11:06;1;1;
73246;PMS5003;61460;41.158;-73.238;2023-04-25T13:13:37;2;1;
73246;PMS5003;61460;41.158;-73.238;2023-04-25T13:16:07;3;2;
73246;PMS5003;61460;41.158;-73.238;2023-04-25T13:18:38;1;1;
73246;PMS5003;61460;41.158;-73.238;2023-04-25T13:21:09;1;1;
73246;PMS5003;61460;41.158;-73.238;2023-04-25T13:23:39;1;1;
73246;PMS5003;61460;41.158;-73.238;2023-04-25T13:26:10;1;1;
73246;PMS5003;61460;41.158;-73.238;2023-04-25T13:28:40;1;1;
73246;PMS5003;61460;41.158;-73.238;2023-04-25T13:31:11;1;0;
73246;PMS5003;61460;41.158;-73.238;2023-04-25T13:33:42;1;1;
73246;PMS5003;61460;41.158;-73.238;2023-04-25T13:36:13;2;2;
73246;PMS5003;61460;41.158;-73.238;2023-04-25T13:38:43;2;2;
73246;PMS5003;61460;41.158;-73.238;2023-04-25T13:41:14;0;0;
73246;PMS5003;61460;41.158;-73.238;2023-04-25T13:43:45;1;1;
73246;PMS5003;61460;41.158;-73.238;2023-04-25T13:46:15;0;0;
73246;PMS5003;61460;41.158;-73.238;2023-04-25T13:48:46;0;0;
73246;PMS5003;61460;41.158;-73.238;2023-04-25T13:51:16;2;2;
73246;PMS5003;61460;41.158;-73.238;2023-04-25T13:53:47;2;0;
73246;PMS5003;61460;41.158;-73.238;2023-04-25T13:56:18;0;0;
73246;PMS5003;61460;41.158;-73.238;2023-04-25T13:58:48;1;1;
73246;PMS5003;61460;41.158;-73.238;2023-04-25T14:01:19;2;2;
73246;PMS5003;61460;41.158;-73.238;2023-04-25T14:03:50;0;0;
73246;PMS5003;61460;41.158;-73.238;2023-04-25T14:06:20;1;1;
73246;PMS5003;61460;41.158;-73.238;2023-04-25T14:08:51;1;1;
73246;PMS5003;61460;41.158;-73.238;2023-04-25T14:11:22;2;1;
73246;PMS5003;61460;41.158;-73.238;2023-04-25T14:13:52;2;2;
73246;PMS5003;61460;41.158;-73.238;2023-04-25T14:16:23;2;2;
73246;PMS5003;61460;41.158;-73.238;2023-04-25T14:18:54;3;2;
73246;PMS5003;61460;41.158;-73.238;2023-04-25T14:21:24;2;2;
73246;PMS5003;61460;41.158;-73.238;2023-04-25T14:23:55;2;2;
73246;PMS5003;61460;41.158;-73.238;2023-04-25T14:26:26;5;3;
73246;PMS5003;61460;41.158;-73.238;2023-04-25T14:28:56;4;3;
73246;PMS5003;61460;41.158;-73.238;2023-04-25T14:31:27;1;1;
73246;PMS5003;61460;41.158;-73.238;2023-04-25T14:33:58;4;4;
73246;PMS5003;61460;41.158;-73.238;2023-04-25T14:36:28;4;4;
73246;PMS5003;61460;41.158;-73.238;2023-04-25T14:38:59;3;3;
73246;PMS5003;61460;41.158;-73.238;2023-04-25T14:41:30;3;3;
73246;PMS5003;61460;41.158;-73.238;2023-04-25T14:44:00;2;2;
73246;PMS5003;61460;41.158;-73.238;2023-04-25T14:46:31;3;3;
73246;PMS5003;61460;41.158;-73.238;2023-04-25T14:49:02;3;3;
73246;PMS5003;61460;41.158;-73.238;2023-04-25T14:51:32;4;4;
73246;PMS5003;61460;41.158;-73.238;2023-04-25T14:54:03;5;4;
73246;PMS5003;61460;41.158;-73.238;2023-04-25T14:56:34;3;3;
73246;PMS5003;61460;41.158;-73.238;2023-04-25T14:59:04;1;1;
73246;PMS5003;61460;41.158;-73.238;2023-04-25T15:01:35;2;2;
73246;PMS5003;61460;41.158;-73.238;2023-04-25T15:04:06;3;3;
73246;PMS5003;61460;41.158;-73.238;2023-04-25T15:06:36;3;2;
73246;PMS5003;61460;41.158;-73.238;2023-04-25T15:09:07;3;2;
73246;PMS5003;61460;41.158;-73.238;2023-04-25T15:11:38;3;3;
73246;PMS5003;61460;41.158;-73.238;2023-04-25T15:14:08;2;2;
73246;PMS5003;61460;41.158;-73.238;2023-04-25T15:16:39;2;2;
73246;PMS5003;61460;41.158;-73.238;2023-04-25T15:19:09;3;3;
73246;PMS5003;61460;41.158;-73.238;2023-04-25T15:21:40;3;3;
73246;PMS5003;61460;41.158;-73.238;2023-04-25T15:24:11;2;2;
73246;PMS5003;61460;41.158;-73.238;2023-04-25T15:26:41;4;4;
73246;PMS5003;61460;41.158;-73.238;2023-04-25T15:29:12;4;3;
73246;PMS5003;61460;41.158;-73.238;2023-04-25T15:31:43;3;3;
73246;PMS5003;61460;41.158;-73.238;2023-04-25T15:34:13;4;2;
73246;PMS5003;61460;41.158;-73.238;2023-04-25T15:36:44;6;5;
73246;PMS5003;61460;41.158;-73.238;2023-04-25T15:39:15;3;2;
73246;PMS5003;61460;41.158;-73.238;2023-04-25T15:41:46;5;5;
73246;PMS5003;61460;41.158;-73.238;2023-04-25T15:44:16;4;3;
73246;PMS5003;61460;41.158;-73.238;2023-04-25T15:46:47;5;5;
73246;PMS5003;61460;41.158;-73.238;2023-04-25T15:49:17;3;2;
73246;PMS5003;61460;41.158;-73.238;2023-04-25T15:51:48;2;2;
73246;PMS5003;61460;41.158;-73.238;2023-04-25T15:54:19;3;3;
73246;PMS5003;61460;41.158;-73.238;2023-04-25T15:56:49;3;3;
73246;PMS5003;61460;41.158;-73.238;2023-04-25T15:59:20;3;3;
73246;PMS5003;61460;41.158;-73.238;2023-04-25T16:01:51;1;1;
73246;PMS5003;61460;41.158;-73.238;2023-04-25T16:04:21;3;3;
73246;PMS5003;61460;41.158;-73.238;2023-04-25T16:06:52;2;2;
73246;PMS5003;61460;41.158;-73.238;2023-04-25T16:09:23;5;4;
73246;PMS5003;61460;41.158;-73.238;2023-04-25T16:11:53;3;3;
73246;PMS5003;61460;41.158;-73.238;2023-04-25T16:14:24;4;4;
73246;PMS5003;61460;41.158;-73.238;2023-04-25T16:16:55;4;3;
73246;PMS5003;61460;41.158;-73.238;2023-04-25T16:19:25;5;5;
73246;PMS5003;61460;41.158;-73.238;2023-04-25T16:21:56;3;3;
73246;PMS5003;61460;41.158;-73.238;2023-04-25T16:24:27;3;2;
73246;PMS5003;61460;41.158;-73.238;2023-04-25T16:26:57;2;2;
73246;PMS5003;61460;41.158;-73.238;2023-04-25T16:29:28;3;2;
73246;PMS5003;61460;41.158;-73.238;2023-04-25T16:31:59;3;3;
73246;PMS5003;61460;41.158;-73.238;2023-04-25T16:34:29;5;4;
73246;PMS5003;61460;41.158;-73.238;2023-04-25T16:37:00;3;3;
73246;PMS5003;61460;41.158;-73.238;2023-04-25T16:39:31;3;3;
73246;PMS5003;61460;41.158;-73.238;2023-04-25T16:42:01;2;2;
73246;PMS5003;61460;41.158;-73.238;2023-04-25T16:44:32;3;3;